createdAt,value
2019-05-23T00:00:46.620Z,16.90
2019-05-23T00:03:48.812Z,16.90
2019-05-23T00:06:40.952Z,17.00
2019-05-23T00:09:30.932Z,16.90
2019-05-23T00:12:21.769Z,16.90
2019-05-23T00:15:01.441Z,16.90
2019-05-23T00:17:33.364Z,16.80
2019-05-23T00:20:06.616Z,16.70
2019-05-23T00:22:38.316Z,16.70
2019-05-23T00:25:11.320Z,16.70
2019-05-23T00:27:43.409Z,16.70
2019-05-23T00:30:17.114Z,16.60
2019-05-23T00:32:48.064Z,16.50
2019-05-23T00:35:19.916Z,16.10
2019-05-23T00:37:51.537Z,15.90
2019-05-23T00:40:23.449Z,15.70
2019-05-23T00:42:55.158Z,15.50
2019-05-23T00:45:27.252Z,15.30
2019-05-23T00:47:57.697Z,15.40
2019-05-23T00:50:30.579Z,15.30
2019-05-23T00:53:01.179Z,15.50
2019-05-23T00:55:31.790Z,15.40
2019-05-23T00:58:02.454Z,15.30
2019-05-23T01:00:33.305Z,15.20
2019-05-23T01:03:05.296Z,15.00
2019-05-23T01:05:37.578Z,14.90
2019-05-23T01:08:07.774Z,14.80
2019-05-23T01:10:38.696Z,14.70
2019-05-23T01:13:11.089Z,14.70
2019-05-23T01:15:42.083Z,14.70
2019-05-23T01:18:13.644Z,14.70
2019-05-23T01:20:48.354Z,14.70
2019-05-23T01:23:20.361Z,14.70
2019-05-23T01:25:51.320Z,14.70
2019-05-23T01:28:23.476Z,14.80
2019-05-23T01:30:55.080Z,14.90
2019-05-23T01:33:25.841Z,14.90
2019-05-23T01:35:57.112Z,14.90
2019-05-23T01:38:28.638Z,14.90
2019-05-23T01:40:59.752Z,15.00
2019-05-23T01:43:32.488Z,15.00
2019-05-23T01:46:03.324Z,14.90
2019-05-23T01:48:34.134Z,14.80
2019-05-23T01:51:04.639Z,14.80
2019-05-23T01:53:37.065Z,14.90
2019-05-23T01:56:08.519Z,15.10
2019-05-23T01:58:40.200Z,15.20
2019-05-23T02:01:11.443Z,15.10
2019-05-23T02:03:42.216Z,15.00
2019-05-23T02:06:12.646Z,14.90
2019-05-23T02:08:45.183Z,15.10
2019-05-23T02:11:18.174Z,15.20
2019-05-23T02:13:49.605Z,15.30
2019-05-23T02:16:21.313Z,15.50
2019-05-23T02:18:53.302Z,15.60
2019-05-23T02:21:23.828Z,15.70
2019-05-23T02:23:54.747Z,15.80
2019-05-23T02:26:25.566Z,15.80
2019-05-23T02:28:56.299Z,15.90
2019-05-23T02:31:27.254Z,15.90
2019-05-23T02:33:58.416Z,16.00
2019-05-23T02:36:28.833Z,16.00
2019-05-23T02:39:01.142Z,16.00
2019-05-23T02:41:38.797Z,16.00
2019-05-23T02:44:11.386Z,16.10
2019-05-23T02:46:59.830Z,16.10
2019-05-23T02:49:32.825Z,16.20
2019-05-23T02:52:07.459Z,16.20
2019-05-23T02:54:37.986Z,16.20
2019-05-23T02:57:12.193Z,16.10
2019-05-23T02:59:49.553Z,16.10
2019-05-23T03:02:44.061Z,16.00
2019-05-23T03:05:17.341Z,16.10
2019-05-23T03:07:47.806Z,16.10
2019-05-23T03:10:20.519Z,16.10
2019-05-23T03:12:53.000Z,16.10
2019-05-23T03:15:27.626Z,15.90
2019-05-23T03:18:01.006Z,15.70
2019-05-23T03:20:31.371Z,15.70
2019-05-23T03:23:12.317Z,15.70
2019-05-23T03:25:45.635Z,15.60
2019-05-23T03:28:19.067Z,15.40
2019-05-23T03:31:25.061Z,15.30
2019-05-23T03:33:30.111Z,15.10
2019-05-23T03:36:02.307Z,15.20
2019-05-23T03:38:33.051Z,15.20
2019-05-23T03:41:05.141Z,15.20
2019-05-23T03:43:36.333Z,15.30
2019-05-23T03:46:11.118Z,15.40
2019-05-23T03:48:42.627Z,15.40
2019-05-23T03:51:13.688Z,15.40
2019-05-23T03:53:45.836Z,15.30
2019-05-23T03:56:16.214Z,15.20
2019-05-23T03:58:48.134Z,15.30
2019-05-23T04:01:20.941Z,15.40
2019-05-23T04:03:51.786Z,15.40
2019-05-23T04:06:22.822Z,15.30
2019-05-23T04:08:53.449Z,15.50
2019-05-23T04:11:24.071Z,15.70
2019-05-23T04:13:55.010Z,15.80
2019-05-23T04:16:30.265Z,15.80
2019-05-23T04:18:58.535Z,15.80
2019-05-23T04:21:29.595Z,15.80
2019-05-23T04:24:00.144Z,15.80
2019-05-23T04:26:30.611Z,15.90
2019-05-23T04:29:01.540Z,15.90
2019-05-23T04:31:32.359Z,15.80
2019-05-23T04:34:04.438Z,16.00
2019-05-23T04:36:34.876Z,16.10
2019-05-23T04:39:07.069Z,16.30
2019-05-23T04:41:40.884Z,16.40
2019-05-23T04:44:15.236Z,16.60
2019-05-23T04:46:45.958Z,16.50
2019-05-23T04:49:16.440Z,16.50
2019-05-23T04:51:47.681Z,16.50
2019-05-23T04:54:18.556Z,16.60
2019-05-23T04:56:50.158Z,16.80
2019-05-23T04:59:22.400Z,16.70
2019-05-23T05:01:54.966Z,16.80
2019-05-23T05:04:25.883Z,16.80
2019-05-23T05:06:56.741Z,16.90
2019-05-23T05:09:28.956Z,16.90
2019-05-23T05:12:00.522Z,16.90
2019-05-23T05:14:31.652Z,17.20
2019-05-23T05:17:02.230Z,17.20
2019-05-23T05:19:32.776Z,17.40
2019-05-23T05:22:03.249Z,17.50
2019-05-23T05:24:33.691Z,17.80
2019-05-23T05:27:06.060Z,17.70
2019-05-23T05:29:37.795Z,17.80
2019-05-23T05:32:08.257Z,17.70
2019-05-23T05:34:38.685Z,17.80
2019-05-23T05:37:09.197Z,18.00
2019-05-23T05:39:39.684Z,18.20
2019-05-23T05:42:11.812Z,18.20
2019-05-23T05:44:42.637Z,18.30
2019-05-23T05:47:14.315Z,18.40
2019-05-23T05:49:44.761Z,18.70
2019-05-23T05:52:16.336Z,18.80
2019-05-23T05:54:46.875Z,18.80
2019-05-23T05:57:17.353Z,18.80
2019-05-23T05:59:47.772Z,18.80
2019-05-23T06:02:19.992Z,18.90
2019-05-23T06:04:50.348Z,19.10
2019-05-23T06:07:32.080Z,19.10
2019-05-23T06:10:03.753Z,19.70
2019-05-23T06:12:34.201Z,21.30
2019-05-23T06:15:07.139Z,22.40
2019-05-23T06:17:37.788Z,22.60
2019-05-23T06:20:10.160Z,22.20
2019-05-23T06:22:42.423Z,21.40
2019-05-23T06:25:13.984Z,22.00
2019-05-23T06:27:46.210Z,22.90
2019-05-23T06:30:17.222Z,24.30
2019-05-23T06:32:47.454Z,24.60
2019-05-23T06:35:17.817Z,24.80
2019-05-23T06:37:48.647Z,24.30
2019-05-23T06:40:19.313Z,23.90
2019-05-23T06:42:51.057Z,24.10
2019-05-23T06:45:24.168Z,24.10
2019-05-23T06:47:54.530Z,24.50
2019-05-23T06:50:26.442Z,25.30
2019-05-23T06:52:56.921Z,25.10
2019-05-23T06:55:27.882Z,25.30
2019-05-23T06:57:58.322Z,25.50
2019-05-23T07:00:30.422Z,25.70
2019-05-23T07:02:59.933Z,25.00
2019-05-23T07:05:33.308Z,25.50
2019-05-23T07:08:06.037Z,25.50
2019-05-23T07:10:37.418Z,24.80
2019-05-23T07:13:07.848Z,24.80
2019-05-23T07:15:38.209Z,24.80
2019-05-23T07:18:09.720Z,25.30
2019-05-23T07:20:40.150Z,25.40
2019-05-23T07:23:12.685Z,25.00
2019-05-23T07:25:43.127Z,25.50
2019-05-23T07:28:13.512Z,25.60
2019-05-23T07:30:44.843Z,25.70
2019-05-23T07:33:15.388Z,24.70
2019-05-23T07:35:45.778Z,24.90
2019-05-23T07:38:16.773Z,25.20
2019-05-23T07:40:48.366Z,25.60
2019-05-23T07:43:19.292Z,25.70
2019-05-23T07:45:51.366Z,25.70
2019-05-23T07:48:21.799Z,25.40
2019-05-23T07:50:52.333Z,25.90
2019-05-23T07:53:32.328Z,25.80
2019-05-23T07:56:04.557Z,26.40
2019-05-23T07:58:36.189Z,27.40
2019-05-23T08:01:15.378Z,27.20
2019-05-23T08:03:49.107Z,27.00
2019-05-23T08:06:20.366Z,26.50
2019-05-23T08:08:52.291Z,26.60
2019-05-23T08:11:22.760Z,26.40
2019-05-23T08:13:54.690Z,26.00
2019-05-23T08:16:25.073Z,24.50
2019-05-23T08:18:55.499Z,24.30
2019-05-23T08:21:25.957Z,24.10
2019-05-23T08:23:56.841Z,23.90
2019-05-23T08:26:28.347Z,23.90
2019-05-23T08:29:24.250Z,23.70
2019-05-23T08:31:31.552Z,23.60
2019-05-23T08:34:03.135Z,23.70
2019-05-23T08:36:34.465Z,23.90
2019-05-23T08:39:09.132Z,23.60
2019-05-23T08:41:39.839Z,23.50
2019-05-23T08:44:11.685Z,23.60
2019-05-23T08:46:43.375Z,23.80
2019-05-23T08:49:16.138Z,23.90
2019-05-23T08:51:47.072Z,23.90
2019-05-23T08:54:17.473Z,23.50
2019-05-23T08:56:48.011Z,23.40
2019-05-23T08:59:18.988Z,23.70
2019-05-23T09:01:49.431Z,23.80
2019-05-23T09:04:21.034Z,23.90
2019-05-23T09:06:52.755Z,23.90
2019-05-23T09:09:29.763Z,23.40
2019-05-23T09:11:57.294Z,23.40
2019-05-23T09:14:27.645Z,23.30
2019-05-23T09:16:58.073Z,23.50
2019-05-23T09:19:28.448Z,23.60
2019-05-23T09:22:00.179Z,23.90
2019-05-23T09:24:30.538Z,24.00
2019-05-23T09:27:01.065Z,23.80
2019-05-23T09:29:31.425Z,23.60
2019-05-23T09:32:02.775Z,23.50
2019-05-23T09:34:33.554Z,23.60
2019-05-23T09:37:10.309Z,23.50
2019-05-23T09:39:42.501Z,23.40
2019-05-23T09:42:18.224Z,23.60
2019-05-23T09:44:50.017Z,23.50
2019-05-23T09:47:20.523Z,23.70
2019-05-23T09:49:54.832Z,23.90
2019-05-23T09:52:25.433Z,23.70
2019-05-23T09:54:56.077Z,23.70
2019-05-23T09:57:26.496Z,23.80
2019-05-23T09:59:57.186Z,24.00
2019-05-23T10:02:31.461Z,24.10
2019-05-23T10:05:02.094Z,24.40
2019-05-23T10:07:32.498Z,24.70
2019-05-23T10:10:03.014Z,24.80
2019-05-23T10:12:34.778Z,24.40
2019-05-23T10:15:08.095Z,24.40
2019-05-23T10:17:38.453Z,24.40
2019-05-23T10:20:09.088Z,24.30
2019-05-23T10:22:39.445Z,24.30
2019-05-23T10:25:10.189Z,24.10
2019-05-23T10:27:40.557Z,24.00
2019-05-23T10:30:13.623Z,23.90
2019-05-23T10:32:44.038Z,23.50
2019-05-23T10:35:14.625Z,23.40
2019-05-23T10:37:45.061Z,23.50
2019-05-23T10:40:16.924Z,24.20
2019-05-23T10:42:48.212Z,24.70
2019-05-23T10:45:19.398Z,24.60
2019-05-23T10:47:52.692Z,24.80
2019-05-23T10:50:23.913Z,25.00
2019-05-23T10:52:54.467Z,25.00
2019-05-23T10:55:24.860Z,25.00
2019-05-23T10:57:55.244Z,25.30
2019-05-23T11:00:26.576Z,25.00
2019-05-23T11:02:57.109Z,24.70
2019-05-23T11:05:27.886Z,25.30
2019-05-23T11:07:59.706Z,25.50
2019-05-23T11:10:31.170Z,25.30
2019-05-23T11:13:01.712Z,25.10
2019-05-23T11:15:33.148Z,25.00
2019-05-23T11:18:04.524Z,24.90
2019-05-23T11:20:36.202Z,24.80
2019-05-23T11:23:07.115Z,25.00
2019-05-23T11:25:39.876Z,25.10
2019-05-23T11:28:10.244Z,25.40
2019-05-23T11:30:43.760Z,25.00
2019-05-23T11:33:15.024Z,24.40
2019-05-23T11:35:47.557Z,24.30
2019-05-23T11:38:18.039Z,24.00
2019-05-23T11:40:48.680Z,24.20
2019-05-23T11:43:19.053Z,24.50
2019-05-23T11:45:53.741Z,24.70
2019-05-23T11:48:24.772Z,24.90
2019-05-23T11:50:55.844Z,24.70
2019-05-23T11:53:27.075Z,24.60
2019-05-23T11:55:57.639Z,24.70
2019-05-23T11:58:32.127Z,24.70
2019-05-23T12:01:20.926Z,24.70
2019-05-23T12:03:50.745Z,24.70
2019-05-23T12:06:21.099Z,24.80
2019-05-23T12:08:51.637Z,25.10
2019-05-23T12:11:22.024Z,25.10
2019-05-23T12:13:52.534Z,25.50
2019-05-23T12:16:23.908Z,25.30
2019-05-23T12:18:54.835Z,25.00
2019-05-23T12:21:26.474Z,25.00
2019-05-23T12:23:56.981Z,25.40
2019-05-23T12:26:27.619Z,25.80
2019-05-23T12:28:58.786Z,26.00
2019-05-23T12:31:29.156Z,26.20
2019-05-23T12:33:59.684Z,26.20
2019-05-23T12:36:30.545Z,25.80
2019-05-23T12:39:00.909Z,25.70
2019-05-23T12:41:32.545Z,25.60
2019-05-23T12:44:03.015Z,25.80
2019-05-23T12:46:34.570Z,25.90
2019-05-23T12:49:13.204Z,26.10
2019-05-23T12:51:44.836Z,26.00
2019-05-23T12:54:15.603Z,26.00
2019-05-23T12:56:49.014Z,26.50
2019-05-23T12:59:18.894Z,26.40
2019-05-23T13:01:50.898Z,26.50
2019-05-23T13:04:22.044Z,26.70
2019-05-23T13:06:52.450Z,26.50
2019-05-23T13:09:23.023Z,26.30
2019-05-23T13:11:53.578Z,26.30
2019-05-23T13:14:24.634Z,26.40
2019-05-23T13:17:00.357Z,26.30
2019-05-23T13:19:28.398Z,26.60
2019-05-23T13:21:59.267Z,27.00
2019-05-23T13:24:50.606Z,27.10
2019-05-23T13:27:03.686Z,27.10
2019-05-23T13:29:34.073Z,27.00
2019-05-23T13:32:05.606Z,27.40
2019-05-23T13:34:36.680Z,27.50
2019-05-23T13:37:08.964Z,27.00
2019-05-23T13:39:39.328Z,27.50
2019-05-23T13:42:09.771Z,27.60
2019-05-23T13:44:41.925Z,27.50
2019-05-23T13:47:12.455Z,27.20
2019-05-23T13:49:42.979Z,26.90
2019-05-23T13:52:13.401Z,26.70
2019-05-23T13:54:43.762Z,26.90
2019-05-23T13:57:14.397Z,27.30
2019-05-23T13:59:44.877Z,27.40
2019-05-23T14:02:15.723Z,27.20
2019-05-23T14:04:46.089Z,27.20
2019-05-23T14:07:17.109Z,27.10
2019-05-23T14:09:47.572Z,26.70
2019-05-23T14:12:21.773Z,26.50
2019-05-23T14:14:49.129Z,26.80
2019-05-23T14:17:33.246Z,27.10
2019-05-23T14:20:05.137Z,27.20
2019-05-23T14:22:37.185Z,26.70
2019-05-23T14:25:07.859Z,26.60
2019-05-23T14:27:45.928Z,26.50
2019-05-23T14:30:34.245Z,26.70
2019-05-23T14:33:10.038Z,26.50
2019-05-23T14:35:42.092Z,26.40
2019-05-23T14:38:29.681Z,26.50
2019-05-23T14:40:47.028Z,26.50
2019-05-23T14:43:19.114Z,27.00
2019-05-23T14:45:59.414Z,26.80
2019-05-23T14:48:42.798Z,26.60
2019-05-23T14:51:16.482Z,26.90
2019-05-23T14:54:08.101Z,26.70
2019-05-23T14:56:41.058Z,26.90
2019-05-23T14:59:11.794Z,27.00
2019-05-23T15:01:42.255Z,27.20
2019-05-23T15:04:12.885Z,27.30
2019-05-23T15:06:43.245Z,27.20
2019-05-23T15:09:13.678Z,27.10
2019-05-23T15:11:44.136Z,27.10
2019-05-23T15:14:14.685Z,26.80
2019-05-23T15:16:45.457Z,26.70
2019-05-23T15:19:36.486Z,26.40
2019-05-23T15:21:47.875Z,26.30
2019-05-23T15:24:19.433Z,26.60
2019-05-23T15:26:50.200Z,26.70
2019-05-23T15:29:20.626Z,26.60
2019-05-23T15:32:01.594Z,26.50
2019-05-23T15:34:23.042Z,26.50
2019-05-23T15:36:53.502Z,26.40
2019-05-23T15:39:24.526Z,26.30
2019-05-23T15:41:54.976Z,26.30
2019-05-23T15:44:29.287Z,26.40
2019-05-23T15:46:57.473Z,26.40
2019-05-23T15:49:28.802Z,26.40
2019-05-23T15:52:00.848Z,26.40
2019-05-23T15:54:32.804Z,26.30
2019-05-23T15:57:22.801Z,26.10
2019-05-23T16:00:10.389Z,26.20
2019-05-23T16:02:42.332Z,26.30
2019-05-23T16:05:14.341Z,26.30
2019-05-23T16:07:45.335Z,26.40
2019-05-23T16:10:17.269Z,26.10
2019-05-23T16:12:47.908Z,25.80
2019-05-23T16:15:18.425Z,25.70
2019-05-23T16:17:49.446Z,25.70
2019-05-23T16:20:19.941Z,25.90
2019-05-23T16:22:50.296Z,26.00
2019-05-23T16:25:20.719Z,26.00
2019-05-23T16:27:51.822Z,25.60
2019-05-23T16:30:22.826Z,25.60
2019-05-23T16:32:53.192Z,25.70
2019-05-23T16:35:23.891Z,25.90
2019-05-23T16:37:54.340Z,25.90
2019-05-23T16:40:24.741Z,25.90
2019-05-23T16:42:55.124Z,25.80
2019-05-23T16:45:25.545Z,25.70
2019-05-23T16:47:55.945Z,25.70
2019-05-23T16:50:26.398Z,25.60
2019-05-23T16:52:56.924Z,25.70
2019-05-23T16:55:29.178Z,25.70
2019-05-23T16:58:00.427Z,25.60
2019-05-23T17:00:32.194Z,25.60
2019-05-23T17:03:04.201Z,25.60
2019-05-23T17:05:53.016Z,25.60
2019-05-23T17:08:37.130Z,25.60
2019-05-23T17:11:29.758Z,25.40
2019-05-23T17:14:17.594Z,25.30
2019-05-23T17:16:49.540Z,25.20
2019-05-23T17:19:31.676Z,25.10
2019-05-23T17:22:07.225Z,25.00
2019-05-23T17:24:40.243Z,25.00
2019-05-23T17:27:22.064Z,25.00
2019-05-23T17:30:00.153Z,25.00
2019-05-23T17:32:33.293Z,24.90
2019-05-23T17:35:03.916Z,24.80
2019-05-23T17:37:35.913Z,24.80
2019-05-23T17:40:23.809Z,24.80
2019-05-23T17:42:39.862Z,24.80
2019-05-23T17:45:14.092Z,24.70
2019-05-23T17:47:43.767Z,24.60
2019-05-23T17:50:14.445Z,24.50
2019-05-23T17:52:44.883Z,24.20
2019-05-23T17:55:15.459Z,24.00
2019-05-23T17:57:45.875Z,24.00
2019-05-23T18:00:18.025Z,23.90
2019-05-23T18:02:48.749Z,23.80
2019-05-23T18:05:20.297Z,23.80
2019-05-23T18:07:50.828Z,23.70
2019-05-23T18:10:21.488Z,23.60
2019-05-23T18:12:52.105Z,23.60
2019-05-23T18:15:23.107Z,23.50
2019-05-23T18:17:53.540Z,23.30
2019-05-23T18:20:24.866Z,23.10
2019-05-23T18:22:55.221Z,23.00
2019-05-23T18:25:27.413Z,22.90
2019-05-23T18:27:57.819Z,22.60
2019-05-23T18:30:32.701Z,22.50
2019-05-23T18:33:04.791Z,22.40
2019-05-23T18:35:35.813Z,22.30
2019-05-23T18:38:06.597Z,22.20
2019-05-23T18:40:37.720Z,22.10
2019-05-23T18:43:08.806Z,21.90
2019-05-23T18:45:41.812Z,21.60
2019-05-23T18:48:12.532Z,21.40
2019-05-23T18:50:43.753Z,21.30
2019-05-23T18:53:14.332Z,21.00
2019-05-23T18:55:45.441Z,20.80
2019-05-23T18:58:19.417Z,20.70
2019-05-23T19:00:58.810Z,20.50
2019-05-23T19:03:30.476Z,20.40
2019-05-23T19:06:02.215Z,20.30
2019-05-23T19:08:32.690Z,20.20
2019-05-23T19:11:19.607Z,20.00
2019-05-23T19:13:36.388Z,19.90
2019-05-23T19:16:07.105Z,19.90
2019-05-23T19:18:38.184Z,20.00
2019-05-23T19:21:10.967Z,20.00
2019-05-23T19:23:42.453Z,19.80
2019-05-23T19:26:13.092Z,19.80
2019-05-23T19:28:45.884Z,19.80
2019-05-23T19:31:17.804Z,19.80
2019-05-23T19:33:48.184Z,19.70
2019-05-23T19:36:18.840Z,19.60
2019-05-23T19:38:49.648Z,19.60
2019-05-23T19:41:34.460Z,19.40
2019-05-23T19:43:51.598Z,19.40
2019-05-23T19:46:21.918Z,19.40
2019-05-23T19:48:53.250Z,19.30
2019-05-23T19:51:23.646Z,19.40
2019-05-23T19:53:54.162Z,19.70
2019-05-23T19:56:25.024Z,19.90
2019-05-23T19:58:55.464Z,20.10
2019-05-23T20:01:31.561Z,20.20
2019-05-23T20:04:00.643Z,20.40
2019-05-23T20:06:31.428Z,20.30
2019-05-23T20:09:01.999Z,20.40
2019-05-23T20:11:34.196Z,20.50
2019-05-23T20:14:04.720Z,20.40
2019-05-23T20:16:35.593Z,20.10
2019-05-23T20:19:06.715Z,20.10
2019-05-23T20:21:37.083Z,20.30
2019-05-23T20:24:07.830Z,20.30
2019-05-23T20:26:38.199Z,20.30
2019-05-23T20:29:08.703Z,20.20
2019-05-23T20:31:39.231Z,20.10
2019-05-23T20:34:09.838Z,20.10
2019-05-23T20:36:40.270Z,20.10
2019-05-23T20:39:10.791Z,20.10
2019-05-23T20:41:41.427Z,20.10
2019-05-23T20:44:12.092Z,20.10
2019-05-23T20:46:42.614Z,20.10
2019-05-23T20:49:13.197Z,20.10
2019-05-23T20:51:44.796Z,20.00
2019-05-23T20:54:15.229Z,19.90
2019-05-23T20:56:45.645Z,19.90
2019-05-23T20:59:16.138Z,20.00
2019-05-23T21:01:46.680Z,20.00
2019-05-23T21:04:17.303Z,20.00
2019-05-23T21:06:47.789Z,20.00
2019-05-23T21:09:18.209Z,20.10
2019-05-23T21:11:48.647Z,20.00
2019-05-23T21:14:19.089Z,20.00
2019-05-23T21:16:49.481Z,20.10
2019-05-23T21:19:19.984Z,20.00
2019-05-23T21:21:50.425Z,20.00
2019-05-23T21:24:20.997Z,20.00
2019-05-23T21:26:51.412Z,20.10
2019-05-23T21:29:21.930Z,20.00
2019-05-23T21:31:52.413Z,20.00
2019-05-23T21:34:22.844Z,20.00
2019-05-23T21:36:53.223Z,20.00
2019-05-23T21:39:23.621Z,20.00
2019-05-23T21:41:54.626Z,20.00
2019-05-23T21:44:25.295Z,20.10
2019-05-23T21:46:55.752Z,20.10
2019-05-23T21:49:26.889Z,20.00
2019-05-23T21:51:57.268Z,20.00
2019-05-23T21:54:27.781Z,19.90
2019-05-23T21:56:59.407Z,19.90
2019-05-23T21:59:29.809Z,19.90
2019-05-23T22:02:14.093Z,19.90
2019-05-23T22:04:46.017Z,19.80
2019-05-23T22:07:16.451Z,19.70
2019-05-23T22:09:46.793Z,19.60
2019-05-23T22:12:17.701Z,19.50
2019-05-23T22:14:48.226Z,19.30
2019-05-23T22:17:20.204Z,19.30
2019-05-23T22:19:50.639Z,19.20
2019-05-23T22:22:21.087Z,19.30
2019-05-23T22:24:51.620Z,19.30
2019-05-23T22:27:22.814Z,19.40
2019-05-23T22:29:53.351Z,19.40
2019-05-23T22:32:25.440Z,19.40
2019-05-23T22:34:57.425Z,19.40
2019-05-23T22:37:27.835Z,19.40
2019-05-23T22:39:58.203Z,19.40
2019-05-23T22:42:28.807Z,19.10
2019-05-23T22:44:59.266Z,18.90
2019-05-23T22:47:30.393Z,18.70
2019-05-23T22:50:00.769Z,18.60
2019-05-23T22:52:32.490Z,18.60
2019-05-23T22:55:02.961Z,18.40
2019-05-23T22:57:33.387Z,18.50
2019-05-23T23:00:05.112Z,18.60
2019-05-23T23:02:35.535Z,18.70
2019-05-23T23:05:07.025Z,18.80
2019-05-23T23:07:37.476Z,18.80
2019-05-23T23:10:08.294Z,18.80
2019-05-23T23:12:38.731Z,18.80
2019-05-23T23:15:09.138Z,18.70
2019-05-23T23:17:39.590Z,18.70
2019-05-23T23:20:10.192Z,18.70
2019-05-23T23:22:40.569Z,18.60
2019-05-23T23:25:12.417Z,18.50
2019-05-23T23:27:42.784Z,18.50
2019-05-23T23:30:14.918Z,18.50
2019-05-23T23:32:45.322Z,18.50
2019-05-23T23:35:15.685Z,18.50
2019-05-23T23:37:46.097Z,18.50
2019-05-23T23:40:16.592Z,18.50
2019-05-23T23:42:47.112Z,18.50
2019-05-23T23:45:35.261Z,18.50
2019-05-23T23:48:23.428Z,18.50
2019-05-23T23:51:11.817Z,18.40
2019-05-23T23:54:00.122Z,18.40
2019-05-23T23:56:48.337Z,18.50
2019-05-23T23:59:18.190Z,18.50
